sensor_id;sensor_type;location;lat;lon;timestamp;P1;durP1;ratioP1;P2;durP2;ratioP2
11879;SDS011;5999;43.256;27.816;2022-10-30T00:00:45;6.73;;;4.20;;
11879;SDS011;5999;43.256;27.816;2022-10-30T00:03:13;5.83;;;4.30;;
11879;SDS011;5999;43.256;27.816;2022-10-30T00:05:41;5.00;;;3.97;;
11879;SDS011;5999;43.256;27.816;2022-10-30T00:08:09;4.63;;;3.80;;
11879;SDS011;5999;43.256;27.816;2022-10-30T00:10:37;6.87;;;4.43;;
11879;SDS011;5999;43.256;27.816;2022-10-30T00:13:05;4.63;;;3.90;;
11879;SDS011;5999;43.256;27.816;2022-10-30T00:15:32;7.50;;;4.20;;
11879;SDS011;5999;43.256;27.816;2022-10-30T00:17:59;6.17;;;4.07;;
11879;SDS011;5999;43.256;27.816;2022-10-30T00:20:26;6.77;;;4.17;;
11879;SDS011;5999;43.256;27.816;2022-10-30T00:22:53;5.97;;;4.27;;
11879;SDS011;5999;43.256;27.816;2022-10-30T00:25:20;9.27;;;4.63;;
11879;SDS011;5999;43.256;27.816;2022-10-30T00:27:48;6.73;;;4.37;;
11879;SDS011;5999;43.256;27.816;2022-10-30T00:30:15;7.40;;;4.90;;
11879;SDS011;5999;43.256;27.816;2022-10-30T00:32:43;8.70;;;5.00;;
11879;SDS011;5999;43.256;27.816;2022-10-30T00:35:10;10.57;;;6.10;;
11879;SDS011;5999;43.256;27.816;2022-10-30T00:37:37;7.73;;;4.93;;
11879;SDS011;5999;43.256;27.816;2022-10-30T00:40:04;13.70;;;5.73;;
11879;SDS011;5999;43.256;27.816;2022-10-30T00:42:32;8.77;;;5.67;;
11879;SDS011;5999;43.256;27.816;2022-10-30T00:44:59;10.57;;;6.53;;
11879;SDS011;5999;43.256;27.816;2022-10-30T00:47:27;10.53;;;6.30;;
11879;SDS011;5999;43.256;27.816;2022-10-30T00:49:57;12.90;;;6.47;;
11879;SDS011;5999;43.256;27.816;2022-10-30T00:52:27;15.17;;;7.97;;
11879;SDS011;5999;43.256;27.816;2022-10-30T00:55:00;14.23;;;7.60;;
11879;SDS011;5999;43.256;27.816;2022-10-30T00:57:30;18.87;;;8.30;;
11879;SDS011;5999;43.256;27.816;2022-10-30T00:59:57;18.33;;;8.60;;
11879;SDS011;5999;43.256;27.816;2022-10-30T01:02:26;19.03;;;9.03;;
11879;SDS011;5999;43.256;27.816;2022-10-30T01:04:53;22.53;;;10.30;;
11879;SDS011;5999;43.256;27.816;2022-10-30T01:07:20;20.50;;;10.00;;
11879;SDS011;5999;43.256;27.816;2022-10-30T01:09:47;23.23;;;9.97;;
11879;SDS011;5999;43.256;27.816;2022-10-30T01:12:14;16.87;;;9.40;;
11879;SDS011;5999;43.256;27.816;2022-10-30T01:14:42;20.67;;;9.53;;
11879;SDS011;5999;43.256;27.816;2022-10-30T01:17:29;19.83;;;9.80;;
11879;SDS011;5999;43.256;27.816;2022-10-30T01:20:19;25.57;;;11.10;;
11879;SDS011;5999;43.256;27.816;2022-10-30T01:22:58;22.57;;;11.33;;
11879;SDS011;5999;43.256;27.816;2022-10-30T01:25:37;30.93;;;12.77;;
11879;SDS011;5999;43.256;27.816;2022-10-30T01:28:17;27.63;;;12.20;;
11879;SDS011;5999;43.256;27.816;2022-10-30T01:30:57;27.17;;;13.00;;
11879;SDS011;5999;43.256;27.816;2022-10-30T01:33:38;27.80;;;13.13;;
11879;SDS011;5999;43.256;27.816;2022-10-30T01:36:17;32.53;;;14.47;;
11879;SDS011;5999;43.256;27.816;2022-10-30T01:38:49;35.27;;;13.17;;
11879;SDS011;5999;43.256;27.816;2022-10-30T01:41:18;34.43;;;15.90;;
11879;SDS011;5999;43.256;27.816;2022-10-30T01:43:46;35.17;;;17.43;;
11879;SDS011;5999;43.256;27.816;2022-10-30T01:46:25;34.07;;;16.53;;
11879;SDS011;5999;43.256;27.816;2022-10-30T01:49:08;30.70;;;16.20;;
11879;SDS011;5999;43.256;27.816;2022-10-30T01:51:50;32.83;;;16.10;;
11879;SDS011;5999;43.256;27.816;2022-10-30T01:54:32;34.20;;;16.63;;
11879;SDS011;5999;43.256;27.816;2022-10-30T01:57:08;28.13;;;13.73;;
11879;SDS011;5999;43.256;27.816;2022-10-30T01:59:43;30.23;;;14.43;;
11879;SDS011;5999;43.256;27.816;2022-10-30T02:02:15;31.33;;;13.97;;
11879;SDS011;5999;43.256;27.816;2022-10-30T02:04:43;25.40;;;12.87;;
11879;SDS011;5999;43.256;27.816;2022-10-30T02:07:13;25.77;;;13.67;;
11879;SDS011;5999;43.256;27.816;2022-10-30T02:09:40;24.73;;;12.40;;
11879;SDS011;5999;43.256;27.816;2022-10-30T02:12:07;26.83;;;12.37;;
11879;SDS011;5999;43.256;27.816;2022-10-30T02:14:35;21.10;;;10.63;;
11879;SDS011;5999;43.256;27.816;2022-10-30T02:17:08;23.30;;;11.23;;
11879;SDS011;5999;43.256;27.816;2022-10-30T02:19:36;23.27;;;12.43;;
11879;SDS011;5999;43.256;27.816;2022-10-30T02:22:03;24.97;;;11.80;;
11879;SDS011;5999;43.256;27.816;2022-10-30T02:24:31;21.30;;;11.03;;
11879;SDS011;5999;43.256;27.816;2022-10-30T02:26:58;22.27;;;11.83;;
11879;SDS011;5999;43.256;27.816;2022-10-30T02:29:25;30.03;;;12.00;;
11879;SDS011;5999;43.256;27.816;2022-10-30T02:31:52;25.47;;;11.90;;
11879;SDS011;5999;43.256;27.816;2022-10-30T02:34:18;26.63;;;12.27;;
11879;SDS011;5999;43.256;27.816;2022-10-30T02:36:45;18.37;;;10.80;;
11879;SDS011;5999;43.256;27.816;2022-10-30T02:39:13;20.90;;;10.37;;
11879;SDS011;5999;43.256;27.816;2022-10-30T02:41:40;18.10;;;10.27;;
11879;SDS011;5999;43.256;27.816;2022-10-30T02:44:07;19.27;;;10.83;;
11879;SDS011;5999;43.256;27.816;2022-10-30T02:46:33;21.00;;;11.10;;
11879;SDS011;5999;43.256;27.816;2022-10-30T02:49:00;21.63;;;11.13;;
11879;SDS011;5999;43.256;27.816;2022-10-30T02:51:28;12.27;;;8.43;;
11879;SDS011;5999;43.256;27.816;2022-10-30T02:53:57;13.33;;;9.03;;
11879;SDS011;5999;43.256;27.816;2022-10-30T02:56:25;10.93;;;7.13;;
11879;SDS011;5999;43.256;27.816;2022-10-30T02:58:52;13.17;;;9.30;;
11879;SDS011;5999;43.256;27.816;2022-10-30T03:01:20;11.13;;;8.33;;
11879;SDS011;5999;43.256;27.816;2022-10-30T03:03:47;12.97;;;7.43;;
11879;SDS011;5999;43.256;27.816;2022-10-30T03:06:14;11.83;;;8.27;;
11879;SDS011;5999;43.256;27.816;2022-10-30T03:08:41;11.53;;;7.40;;
11879;SDS011;5999;43.256;27.816;2022-10-30T03:11:09;11.77;;;8.20;;
11879;SDS011;5999;43.256;27.816;2022-10-30T03:13:38;11.30;;;8.03;;
11879;SDS011;5999;43.256;27.816;2022-10-30T03:16:07;12.00;;;8.37;;
11879;SDS011;5999;43.256;27.816;2022-10-30T03:18:35;12.93;;;8.93;;
11879;SDS011;5999;43.256;27.816;2022-10-30T03:21:02;10.13;;;7.83;;
11879;SDS011;5999;43.256;27.816;2022-10-30T03:23:30;12.57;;;9.37;;
11879;SDS011;5999;43.256;27.816;2022-10-30T03:25:57;14.00;;;9.77;;
11879;SDS011;5999;43.256;27.816;2022-10-30T03:28:25;13.20;;;10.00;;
11879;SDS011;5999;43.256;27.816;2022-10-30T03:30:57;15.60;;;10.57;;
11879;SDS011;5999;43.256;27.816;2022-10-30T03:33:25;15.70;;;11.10;;
11879;SDS011;5999;43.256;27.816;2022-10-30T03:35:52;18.30;;;11.87;;
11879;SDS011;5999;43.256;27.816;2022-10-30T03:38:19;19.50;;;11.17;;
11879;SDS011;5999;43.256;27.816;2022-10-30T03:40:46;16.80;;;11.33;;
11879;SDS011;5999;43.256;27.816;2022-10-30T03:43:12;14.70;;;10.50;;
11879;SDS011;5999;43.256;27.816;2022-10-30T03:45:39;18.63;;;11.40;;
11879;SDS011;5999;43.256;27.816;2022-10-30T03:48:13;18.87;;;12.07;;
11879;SDS011;5999;43.256;27.816;2022-10-30T03:50:40;19.87;;;11.83;;
11879;SDS011;5999;43.256;27.816;2022-10-30T03:53:07;20.73;;;12.33;;
11879;SDS011;5999;43.256;27.816;2022-10-30T03:55:33;19.47;;;10.93;;
11879;SDS011;5999;43.256;27.816;2022-10-30T03:58:00;20.87;;;10.60;;
11879;SDS011;5999;43.256;27.816;2022-10-30T04:00:27;17.20;;;10.67;;
11879;SDS011;5999;43.256;27.816;2022-10-30T04:02:54;19.13;;;10.93;;
11879;SDS011;5999;43.256;27.816;2022-10-30T04:05:22;18.93;;;10.27;;
11879;SDS011;5999;43.256;27.816;2022-10-30T04:07:54;17.20;;;11.40;;
11879;SDS011;5999;43.256;27.816;2022-10-30T04:10:21;17.90;;;11.93;;
11879;SDS011;5999;43.256;27.816;2022-10-30T04:12:48;18.80;;;11.67;;
11879;SDS011;5999;43.256;27.816;2022-10-30T04:15:16;18.10;;;11.00;;
11879;SDS011;5999;43.256;27.816;2022-10-30T04:17:47;19.03;;;12.37;;
11879;SDS011;5999;43.256;27.816;2022-10-30T04:20:14;20.77;;;12.10;;
11879;SDS011;5999;43.256;27.816;2022-10-30T04:22:42;20.37;;;12.03;;
11879;SDS011;5999;43.256;27.816;2022-10-30T04:25:09;18.47;;;12.27;;
11879;SDS011;5999;43.256;27.816;2022-10-30T04:27:40;18.03;;;11.30;;
11879;SDS011;5999;43.256;27.816;2022-10-30T04:30:07;20.20;;;12.87;;
11879;SDS011;5999;43.256;27.816;2022-10-30T04:32:36;16.70;;;12.13;;
11879;SDS011;5999;43.256;27.816;2022-10-30T04:35:11;16.47;;;11.90;;
11879;SDS011;5999;43.256;27.816;2022-10-30T04:37:38;16.80;;;11.77;;
11879;SDS011;5999;43.256;27.816;2022-10-30T04:40:06;18.30;;;11.47;;
11879;SDS011;5999;43.256;27.816;2022-10-30T04:42:33;18.90;;;12.20;;
11879;SDS011;5999;43.256;27.816;2022-10-30T04:45:00;19.63;;;11.87;;
11879;SDS011;5999;43.256;27.816;2022-10-30T04:47:28;21.60;;;11.80;;
11879;SDS011;5999;43.256;27.816;2022-10-30T04:49:55;20.50;;;11.30;;
11879;SDS011;5999;43.256;27.816;2022-10-30T04:52:21;21.20;;;11.30;;
11879;SDS011;5999;43.256;27.816;2022-10-30T04:54:48;20.80;;;11.13;;
11879;SDS011;5999;43.256;27.816;2022-10-30T04:57:16;19.03;;;11.97;;
11879;SDS011;5999;43.256;27.816;2022-10-30T04:59:43;18.30;;;11.57;;
11879;SDS011;5999;43.256;27.816;2022-10-30T05:02:09;19.33;;;9.97;;
11879;SDS011;5999;43.256;27.816;2022-10-30T05:04:36;15.20;;;9.23;;
11879;SDS011;5999;43.256;27.816;2022-10-30T05:07:03;17.87;;;8.67;;
11879;SDS011;5999;43.256;27.816;2022-10-30T05:09:31;13.43;;;8.10;;
11879;SDS011;5999;43.256;27.816;2022-10-30T05:11:58;18.97;;;8.77;;
11879;SDS011;5999;43.256;27.816;2022-10-30T05:14:27;19.13;;;8.33;;
11879;SDS011;5999;43.256;27.816;2022-10-30T05:16:54;19.93;;;7.80;;
11879;SDS011;5999;43.256;27.816;2022-10-30T05:19:21;15.27;;;7.87;;
11879;SDS011;5999;43.256;27.816;2022-10-30T05:21:48;11.63;;;7.10;;
11879;SDS011;5999;43.256;27.816;2022-10-30T05:24:15;15.03;;;7.77;;
11879;SDS011;5999;43.256;27.816;2022-10-30T05:26:42;12.13;;;7.23;;
11879;SDS011;5999;43.256;27.816;2022-10-30T05:29:09;13.20;;;7.43;;
11879;SDS011;5999;43.256;27.816;2022-10-30T05:31:36;15.77;;;7.77;;
11879;SDS011;5999;43.256;27.816;2022-10-30T05:34:03;18.00;;;7.97;;
11879;SDS011;5999;43.256;27.816;2022-10-30T05:36:30;14.67;;;8.40;;
11879;SDS011;5999;43.256;27.816;2022-10-30T05:38:57;16.40;;;8.50;;
11879;SDS011;5999;43.256;27.816;2022-10-30T05:41:24;13.10;;;8.60;;
11879;SDS011;5999;43.256;27.816;2022-10-30T05:43:51;22.60;;;9.17;;
11879;SDS011;5999;43.256;27.816;2022-10-30T05:46:17;18.47;;;8.23;;
11879;SDS011;5999;43.256;27.816;2022-10-30T05:48:45;15.87;;;8.37;;
11879;SDS011;5999;43.256;27.816;2022-10-30T05:51:12;19.55;;;8.05;;
11879;SDS011;5999;43.256;27.816;2022-10-30T05:53:39;18.48;;;7.60;;
11879;SDS011;5999;43.256;27.816;2022-10-30T05:56:05;12.90;;;7.28;;
11879;SDS011;5999;43.256;27.816;2022-10-30T05:58:32;19.08;;;8.27;;
11879;SDS011;5999;43.256;27.816;2022-10-30T06:00:59;14.38;;;8.55;;
11879;SDS011;5999;43.256;27.816;2022-10-30T06:03:30;22.17;;;9.82;;
11879;SDS011;5999;43.256;27.816;2022-10-30T06:05:58;21.50;;;10.05;;
11879;SDS011;5999;43.256;27.816;2022-10-30T06:08:25;10.73;;;8.45;;
11879;SDS011;5999;43.256;27.816;2022-10-30T06:10:53;14.13;;;8.50;;
11879;SDS011;5999;43.256;27.816;2022-10-30T06:13:20;12.30;;;8.40;;
11879;SDS011;5999;43.256;27.816;2022-10-30T06:15:46;13.88;;;8.00;;
11879;SDS011;5999;43.256;27.816;2022-10-30T06:18:13;12.35;;;7.18;;
11879;SDS011;5999;43.256;27.816;2022-10-30T06:20:40;9.98;;;7.40;;
11879;SDS011;5999;43.256;27.816;2022-10-30T06:23:08;12.32;;;7.80;;
11879;SDS011;5999;43.256;27.816;2022-10-30T06:25:35;12.10;;;7.75;;
11879;SDS011;5999;43.256;27.816;2022-10-30T06:28:02;11.18;;;7.70;;
11879;SDS011;5999;43.256;27.816;2022-10-30T06:30:30;11.57;;;7.80;;
11879;SDS011;5999;43.256;27.816;2022-10-30T06:32:57;11.65;;;8.25;;
11879;SDS011;5999;43.256;27.816;2022-10-30T06:35:25;10.52;;;7.75;;
11879;SDS011;5999;43.256;27.816;2022-10-30T06:37:52;13.00;;;8.18;;
11879;SDS011;5999;43.256;27.816;2022-10-30T06:40:21;11.50;;;8.50;;
11879;SDS011;5999;43.256;27.816;2022-10-30T06:42:49;10.43;;;8.35;;
11879;SDS011;5999;43.256;27.816;2022-10-30T06:45:18;15.45;;;8.93;;
11879;SDS011;5999;43.256;27.816;2022-10-30T06:47:46;12.10;;;8.57;;
11879;SDS011;5999;43.256;27.816;2022-10-30T06:50:14;11.93;;;7.78;;
11879;SDS011;5999;43.256;27.816;2022-10-30T06:52:42;12.60;;;7.80;;
11879;SDS011;5999;43.256;27.816;2022-10-30T06:55:09;9.55;;;7.78;;
11879;SDS011;5999;43.256;27.816;2022-10-30T06:57:37;7.90;;;7.00;;
11879;SDS011;5999;43.256;27.816;2022-10-30T07:00:05;9.02;;;7.75;;
11879;SDS011;5999;43.256;27.816;2022-10-30T07:02:33;10.07;;;7.70;;
11879;SDS011;5999;43.256;27.816;2022-10-30T07:05:00;8.88;;;7.85;;
11879;SDS011;5999;43.256;27.816;2022-10-30T07:07:27;10.30;;;8.38;;
11879;SDS011;5999;43.256;27.816;2022-10-30T07:09:54;11.02;;;8.77;;
11879;SDS011;5999;43.256;27.816;2022-10-30T07:12:21;16.52;;;10.02;;
11879;SDS011;5999;43.256;27.816;2022-10-30T07:14:49;10.55;;;8.85;;
11879;SDS011;5999;43.256;27.816;2022-10-30T07:17:16;12.85;;;9.05;;
11879;SDS011;5999;43.256;27.816;2022-10-30T07:19:42;14.60;;;9.02;;
11879;SDS011;5999;43.256;27.816;2022-10-30T07:22:09;14.88;;;9.55;;
11879;SDS011;5999;43.256;27.816;2022-10-30T07:24:36;11.73;;;8.98;;
11879;SDS011;5999;43.256;27.816;2022-10-30T07:27:03;15.25;;;10.07;;
11879;SDS011;5999;43.256;27.816;2022-10-30T07:29:30;11.27;;;9.02;;
11879;SDS011;5999;43.256;27.816;2022-10-30T07:31:57;17.00;;;9.48;;
11879;SDS011;5999;43.256;27.816;2022-10-30T07:34:24;14.70;;;9.60;;
11879;SDS011;5999;43.256;27.816;2022-10-30T07:36:51;15.02;;;9.95;;
11879;SDS011;5999;43.256;27.816;2022-10-30T07:39:18;14.30;;;10.90;;
11879;SDS011;5999;43.256;27.816;2022-10-30T07:41:47;15.07;;;10.52;;
11879;SDS011;5999;43.256;27.816;2022-10-30T07:44:14;14.55;;;9.75;;
11879;SDS011;5999;43.256;27.816;2022-10-30T07:46:41;14.68;;;10.23;;
11879;SDS011;5999;43.256;27.816;2022-10-30T07:49:08;15.27;;;9.90;;
11879;SDS011;5999;43.256;27.816;2022-10-30T07:51:35;13.32;;;10.07;;
11879;SDS011;5999;43.256;27.816;2022-10-30T07:54:02;12.82;;;9.15;;
11879;SDS011;5999;43.256;27.816;2022-10-30T07:56:29;14.73;;;10.27;;
11879;SDS011;5999;43.256;27.816;2022-10-30T07:58:56;14.55;;;10.70;;
11879;SDS011;5999;43.256;27.816;2022-10-30T08:01:22;18.20;;;11.38;;
11879;SDS011;5999;43.256;27.816;2022-10-30T08:03:49;17.15;;;10.30;;
11879;SDS011;5999;43.256;27.816;2022-10-30T08:06:17;16.58;;;11.18;;
11879;SDS011;5999;43.256;27.816;2022-10-30T08:08:44;14.90;;;10.65;;
11879;SDS011;5999;43.256;27.816;2022-10-30T08:11:10;16.45;;;10.35;;
11879;SDS011;5999;43.256;27.816;2022-10-30T08:13:37;14.73;;;9.75;;
11879;SDS011;5999;43.256;27.816;2022-10-30T08:16:04;16.23;;;10.13;;
11879;SDS011;5999;43.256;27.816;2022-10-30T08:18:31;14.50;;;10.10;;
11879;SDS011;5999;43.256;27.816;2022-10-30T08:20:58;17.95;;;10.75;;
11879;SDS011;5999;43.256;27.816;2022-10-30T08:23:26;19.23;;;10.70;;
11879;SDS011;5999;43.256;27.816;2022-10-30T08:25:55;15.00;;;11.15;;
11879;SDS011;5999;43.256;27.816;2022-10-30T08:28:24;14.85;;;8.90;;
11879;SDS011;5999;43.256;27.816;2022-10-30T08:30:51;17.92;;;10.73;;
11879;SDS011;5999;43.256;27.816;2022-10-30T08:33:18;14.15;;;10.90;;
11879;SDS011;5999;43.256;27.816;2022-10-30T08:35:46;14.77;;;10.65;;
11879;SDS011;5999;43.256;27.816;2022-10-30T08:38:13;15.65;;;10.80;;
11879;SDS011;5999;43.256;27.816;2022-10-30T08:40:41;13.70;;;9.68;;
11879;SDS011;5999;43.256;27.816;2022-10-30T08:43:09;13.55;;;9.57;;
11879;SDS011;5999;43.256;27.816;2022-10-30T08:45:36;12.73;;;9.95;;
11879;SDS011;5999;43.256;27.816;2022-10-30T08:48:04;13.43;;;9.55;;
11879;SDS011;5999;43.256;27.816;2022-10-30T08:50:32;19.05;;;10.75;;
11879;SDS011;5999;43.256;27.816;2022-10-30T08:53:00;18.20;;;10.27;;
11879;SDS011;5999;43.256;27.816;2022-10-30T08:55:27;12.13;;;9.07;;
11879;SDS011;5999;43.256;27.816;2022-10-30T08:57:55;12.82;;;9.35;;
11879;SDS011;5999;43.256;27.816;2022-10-30T09:00:22;16.55;;;9.30;;
11879;SDS011;5999;43.256;27.816;2022-10-30T09:02:49;21.23;;;10.00;;
11879;SDS011;5999;43.256;27.816;2022-10-30T09:05:16;15.68;;;9.10;;
11879;SDS011;5999;43.256;27.816;2022-10-30T09:07:43;21.60;;;8.98;;
11879;SDS011;5999;43.256;27.816;2022-10-30T09:10:11;13.65;;;8.60;;
11879;SDS011;5999;43.256;27.816;2022-10-30T09:12:38;17.13;;;8.93;;
11879;SDS011;5999;43.256;27.816;2022-10-30T09:15:07;14.77;;;8.75;;
11879;SDS011;5999;43.256;27.816;2022-10-30T09:17:34;29.33;;;15.30;;
11879;SDS011;5999;43.256;27.816;2022-10-30T09:20:01;23.83;;;12.48;;
11879;SDS011;5999;43.256;27.816;2022-10-30T09:22:28;13.95;;;8.15;;
11879;SDS011;5999;43.256;27.816;2022-10-30T09:24:54;12.27;;;8.00;;
11879;SDS011;5999;43.256;27.816;2022-10-30T09:27:21;15.10;;;7.57;;
11879;SDS011;5999;43.256;27.816;2022-10-30T09:29:48;13.70;;;6.03;;
11879;SDS011;5999;43.256;27.816;2022-10-30T09:32:16;15.07;;;5.22;;
11879;SDS011;5999;43.256;27.816;2022-10-30T09:34:42;9.50;;;4.15;;
11879;SDS011;5999;43.256;27.816;2022-10-30T09:37:09;16.70;;;4.70;;
11879;SDS011;5999;43.256;27.816;2022-10-30T09:39:36;7.20;;;5.35;;
11879;SDS011;5999;43.256;27.816;2022-10-30T09:42:14;5.00;;;3.72;;
11879;SDS011;5999;43.256;27.816;2022-10-30T09:44:56;7.32;;;4.13;;
11879;SDS011;5999;43.256;27.816;2022-10-30T09:47:47;4.90;;;3.90;;
11879;SDS011;5999;43.256;27.816;2022-10-30T09:50:26;6.72;;;3.70;;
11879;SDS011;5999;43.256;27.816;2022-10-30T09:53:00;6.88;;;3.78;;
11879;SDS011;5999;43.256;27.816;2022-10-30T09:55:37;5.07;;;3.33;;
11879;SDS011;5999;43.256;27.816;2022-10-30T09:58:13;7.28;;;4.28;;
11879;SDS011;5999;43.256;27.816;2022-10-30T10:00:49;5.38;;;3.47;;
11879;SDS011;5999;43.256;27.816;2022-10-30T10:03:25;8.13;;;3.25;;
11879;SDS011;5999;43.256;27.816;2022-10-30T10:06:09;5.70;;;3.80;;
11879;SDS011;5999;43.256;27.816;2022-10-30T10:08:40;4.85;;;3.42;;
11879;SDS011;5999;43.256;27.816;2022-10-30T10:11:11;8.13;;;3.72;;
11879;SDS011;5999;43.256;27.816;2022-10-30T10:13:42;7.70;;;4.25;;
11879;SDS011;5999;43.256;27.816;2022-10-30T10:16:15;7.53;;;3.33;;
11879;SDS011;5999;43.256;27.816;2022-10-30T10:18:45;8.73;;;3.83;;
11879;SDS011;5999;43.256;27.816;2022-10-30T10:21:17;6.63;;;4.10;;
11879;SDS011;5999;43.256;27.816;2022-10-30T10:23:49;7.88;;;4.80;;
11879;SDS011;5999;43.256;27.816;2022-10-30T10:26:26;7.20;;;3.72;;
11879;SDS011;5999;43.256;27.816;2022-10-30T10:31:48;9.93;;;5.60;;
11879;SDS011;5999;43.256;27.816;2022-10-30T10:34:31;9.10;;;6.30;;
11879;SDS011;5999;43.256;27.816;2022-10-30T10:37:10;11.35;;;5.93;;
11879;SDS011;5999;43.256;27.816;2022-10-30T10:39:51;12.45;;;6.32;;
11879;SDS011;5999;43.256;27.816;2022-10-30T10:42:42;12.13;;;6.22;;
11879;SDS011;5999;43.256;27.816;2022-10-30T10:45:19;8.02;;;5.10;;
11879;SDS011;5999;43.256;27.816;2022-10-30T10:47:59;10.93;;;6.10;;
11879;SDS011;5999;43.256;27.816;2022-10-30T10:50:40;13.18;;;6.35;;
11879;SDS011;5999;43.256;27.816;2022-10-30T10:53:14;11.00;;;7.07;;
11879;SDS011;5999;43.256;27.816;2022-10-30T10:55:47;10.35;;;6.55;;
11879;SDS011;5999;43.256;27.816;2022-10-30T10:58:20;20.30;;;7.07;;
11879;SDS011;5999;43.256;27.816;2022-10-30T11:00:52;12.77;;;6.20;;
11879;SDS011;5999;43.256;27.816;2022-10-30T11:03:20;9.60;;;5.50;;
11879;SDS011;5999;43.256;27.816;2022-10-30T11:05:55;8.65;;;5.68;;
11879;SDS011;5999;43.256;27.816;2022-10-30T11:08:25;9.13;;;5.80;;
11879;SDS011;5999;43.256;27.816;2022-10-30T11:10:55;11.52;;;5.00;;
11879;SDS011;5999;43.256;27.816;2022-10-30T11:13:24;9.82;;;5.88;;
11879;SDS011;5999;43.256;27.816;2022-10-30T11:15:55;10.10;;;5.82;;
11879;SDS011;5999;43.256;27.816;2022-10-30T11:18:29;8.15;;;4.63;;
11879;SDS011;5999;43.256;27.816;2022-10-30T11:20:58;9.85;;;5.38;;
11879;SDS011;5999;43.256;27.816;2022-10-30T11:23:34;11.50;;;6.70;;
11879;SDS011;5999;43.256;27.816;2022-10-30T11:26:03;8.68;;;6.00;;
11879;SDS011;5999;43.256;27.816;2022-10-30T11:28:51;15.23;;;5.32;;
11879;SDS011;5999;43.256;27.816;2022-10-30T11:31:20;14.52;;;6.53;;
11879;SDS011;5999;43.256;27.816;2022-10-30T11:33:49;7.93;;;5.05;;
11879;SDS011;5999;43.256;27.816;2022-10-30T11:36:18;7.18;;;4.20;;
11879;SDS011;5999;43.256;27.816;2022-10-30T11:38:48;8.82;;;5.20;;
11879;SDS011;5999;43.256;27.816;2022-10-30T11:41:15;7.70;;;4.30;;
11879;SDS011;5999;43.256;27.816;2022-10-30T11:43:42;8.05;;;4.32;;
11879;SDS011;5999;43.256;27.816;2022-10-30T11:46:11;9.50;;;4.78;;
11879;SDS011;5999;43.256;27.816;2022-10-30T11:48:44;7.47;;;4.30;;
11879;SDS011;5999;43.256;27.816;2022-10-30T11:51:13;5.93;;;4.20;;
11879;SDS011;5999;43.256;27.816;2022-10-30T11:53:58;10.25;;;4.70;;
11879;SDS011;5999;43.256;27.816;2022-10-30T11:56:26;8.27;;;4.03;;
11879;SDS011;5999;43.256;27.816;2022-10-30T11:58:58;9.57;;;4.13;;
11879;SDS011;5999;43.256;27.816;2022-10-30T12:01:28;9.40;;;3.17;;
11879;SDS011;5999;43.256;27.816;2022-10-30T12:03:58;7.13;;;4.30;;
11879;SDS011;5999;43.256;27.816;2022-10-30T12:06:40;5.57;;;4.20;;
11879;SDS011;5999;43.256;27.816;2022-10-30T12:09:09;7.13;;;3.15;;
11879;SDS011;5999;43.256;27.816;2022-10-30T12:11:38;4.50;;;2.53;;
11879;SDS011;5999;43.256;27.816;2022-10-30T12:14:12;4.97;;;2.70;;
11879;SDS011;5999;43.256;27.816;2022-10-30T12:16:43;6.28;;;2.63;;
11879;SDS011;5999;43.256;27.816;2022-10-30T12:19:12;5.15;;;3.35;;
11879;SDS011;5999;43.256;27.816;2022-10-30T12:21:43;10.07;;;3.67;;
11879;SDS011;5999;43.256;27.816;2022-10-30T12:24:14;7.55;;;2.70;;
11879;SDS011;5999;43.256;27.816;2022-10-30T12:26:45;3.53;;;2.58;;
11879;SDS011;5999;43.256;27.816;2022-10-30T12:29:16;6.22;;;3.22;;
11879;SDS011;5999;43.256;27.816;2022-10-30T12:31:47;10.55;;;3.92;;
11879;SDS011;5999;43.256;27.816;2022-10-30T12:34:27;8.73;;;2.90;;
11879;SDS011;5999;43.256;27.816;2022-10-30T12:37:03;7.35;;;2.67;;
11879;SDS011;5999;43.256;27.816;2022-10-30T12:39:44;6.40;;;2.80;;
11879;SDS011;5999;43.256;27.816;2022-10-30T12:42:21;4.28;;;2.60;;
11879;SDS011;5999;43.256;27.816;2022-10-30T12:44:50;3.83;;;2.90;;
11879;SDS011;5999;43.256;27.816;2022-10-30T12:47:28;9.10;;;2.58;;
11879;SDS011;5999;43.256;27.816;2022-10-30T12:50:05;4.70;;;2.53;;
11879;SDS011;5999;43.256;27.816;2022-10-30T12:52:43;5.50;;;2.90;;
11879;SDS011;5999;43.256;27.816;2022-10-30T12:55:17;6.05;;;3.20;;
11879;SDS011;5999;43.256;27.816;2022-10-30T12:57:50;5.05;;;2.75;;
11879;SDS011;5999;43.256;27.816;2022-10-30T13:00:21;3.95;;;2.50;;
11879;SDS011;5999;43.256;27.816;2022-10-30T13:02:55;8.48;;;3.22;;
11879;SDS011;5999;43.256;27.816;2022-10-30T13:05:27;6.43;;;2.65;;
11879;SDS011;5999;43.256;27.816;2022-10-30T13:08:05;5.07;;;2.40;;
11879;SDS011;5999;43.256;27.816;2022-10-30T13:10:40;3.53;;;2.60;;
11879;SDS011;5999;43.256;27.816;2022-10-30T13:13:11;4.22;;;2.90;;
11879;SDS011;5999;43.256;27.816;2022-10-30T13:15:44;8.82;;;3.13;;
11879;SDS011;5999;43.256;27.816;2022-10-30T13:18:15;6.60;;;3.17;;
11879;SDS011;5999;43.256;27.816;2022-10-30T13:20:45;7.65;;;2.97;;
11879;SDS011;5999;43.256;27.816;2022-10-30T13:23:23;8.68;;;2.80;;
11879;SDS011;5999;43.256;27.816;2022-10-30T13:26:00;4.10;;;2.60;;
11879;SDS011;5999;43.256;27.816;2022-10-30T13:28:35;6.88;;;2.88;;
11879;SDS011;5999;43.256;27.816;2022-10-30T13:31:10;6.22;;;2.95;;
11879;SDS011;5999;43.256;27.816;2022-10-30T13:33:47;5.35;;;2.53;;
11879;SDS011;5999;43.256;27.816;2022-10-30T13:36:26;6.43;;;3.00;;
11879;SDS011;5999;43.256;27.816;2022-10-30T13:39:02;4.80;;;2.67;;
11879;SDS011;5999;43.256;27.816;2022-10-30T13:41:38;4.05;;;2.58;;
11879;SDS011;5999;43.256;27.816;2022-10-30T13:44:28;7.75;;;2.90;;
11879;SDS011;5999;43.256;27.816;2022-10-30T13:47:11;10.85;;;3.13;;
11879;SDS011;5999;43.256;27.816;2022-10-30T13:49:48;5.43;;;2.78;;
11879;SDS011;5999;43.256;27.816;2022-10-30T13:52:30;5.10;;;3.00;;
11879;SDS011;5999;43.256;27.816;2022-10-30T13:55:01;5.63;;;3.53;;
11879;SDS011;5999;43.256;27.816;2022-10-30T13:57:33;6.72;;;3.03;;
11879;SDS011;5999;43.256;27.816;2022-10-30T14:00:04;10.13;;;4.30;;
11879;SDS011;5999;43.256;27.816;2022-10-30T14:02:41;12.02;;;4.38;;
11879;SDS011;5999;43.256;27.816;2022-10-30T14:05:25;8.75;;;4.38;;
11879;SDS011;5999;43.256;27.816;2022-10-30T14:08:01;9.30;;;4.53;;
11879;SDS011;5999;43.256;27.816;2022-10-30T14:10:42;11.20;;;5.57;;
11879;SDS011;5999;43.256;27.816;2022-10-30T14:13:21;13.75;;;5.57;;
11879;SDS011;5999;43.256;27.816;2022-10-30T14:15:53;13.18;;;6.05;;
11879;SDS011;5999;43.256;27.816;2022-10-30T14:18:31;11.85;;;7.03;;
11879;SDS011;5999;43.256;27.816;2022-10-30T14:21:30;17.00;;;5.55;;
11879;SDS011;5999;43.256;27.816;2022-10-30T14:24:14;13.73;;;5.63;;
11879;SDS011;5999;43.256;27.816;2022-10-30T14:26:49;17.83;;;5.90;;
11879;SDS011;5999;43.256;27.816;2022-10-30T14:29:36;13.70;;;5.82;;
11879;SDS011;5999;43.256;27.816;2022-10-30T14:41:05;11.10;;;6.25;;
11879;SDS011;5999;43.256;27.816;2022-10-30T14:43:47;18.27;;;7.53;;
11879;SDS011;5999;43.256;27.816;2022-10-30T14:46:29;18.90;;;7.15;;
11879;SDS011;5999;43.256;27.816;2022-10-30T14:49:05;22.48;;;8.05;;
11879;SDS011;5999;43.256;27.816;2022-10-30T14:51:52;21.77;;;7.90;;
11879;SDS011;5999;43.256;27.816;2022-10-30T14:54:30;15.43;;;8.50;;
11879;SDS011;5999;43.256;27.816;2022-10-30T14:57:11;18.77;;;8.13;;
11879;SDS011;5999;43.256;27.816;2022-10-30T14:59:47;20.20;;;7.40;;
11879;SDS011;5999;43.256;27.816;2022-10-30T15:02:35;15.25;;;7.30;;
11879;SDS011;5999;43.256;27.816;2022-10-30T15:05:17;20.42;;;7.78;;
11879;SDS011;5999;43.256;27.816;2022-10-30T15:08:17;20.08;;;7.70;;